[source: ADDS]
METAR
EDVE 121820Z 19005KT 140V220 9999 FEW031 BKN036 07/01 Q1002

TAF EDVE 121700Z 1218/1221 16007KT 9999 SCT030 PROB30 TEMPO 1218/1221 SHRA BKN015CB EDDV 121820Z 23004KT 200V290 9999 SCT019 BKN048 06/03 Q1001 NOSIG

TAF EDDV 121700Z 1218/1318 18008KT 9999 SCT030 PROB30 TEMPO 1218/1220 SHRA BKN015CB ETHS 121720Z 20010KT 9999 BKN035 06/01 Q1001 BLU

TAF AMD ETHS 121536Z 1215/1224 19007KT 9999 NSW SCT020 BKN035 TEMPO 1215/1220 22010G20KT 6000 -SHRA SCT015 BKN020TCU CANCEL 1600 ETHC 121750Z 22003KT 9999 SCT030 BKN042 06/03 Q1001 BLU

TAF AMD ETHC 121659Z 1215/1224 16010KT 9999 NSW SCT030 BKN050 BKN140 TEMPO 1215/1222 18010G20KT 8000 -SHRA BKN020 BKN035 BKN090 CANCEL 1730 EDVK 121820Z 19006KT 9999 FEW016 BKN035 03/02 Q1002

TAF EDVK 121700Z 1218/1303 18010KT 9999 SCT020 BKN040 PROB30 TEMPO 1218/1221 SHRA BKN025TCU
TAF
TAF EDVE 121700Z 1218/1221 16007KT 9999 SCT030 PROB30 TEMPO 1218/1221 SHRA BKN015CB

TAF EDDV 121700Z 1218/1318 18008KT 9999 SCT030 PROB30 TEMPO 1218/1220 SHRA BKN015CB

TAF AMD ETHS 121536Z 1215/1224 19007KT 9999 NSW SCT020 BKN035 TEMPO 1215/1220 22010G20KT 6000 -SHRA SCT015 BKN020TCU CANCEL 1600

TAF AMD ETHC 121659Z 1215/1224 16010KT 9999 NSW SCT030 BKN050 BKN140 TEMPO 1215/1222 18010G20KT 8000 -SHRA BKN020 BKN035 BKN090 CANCEL 1730

TAF EDVK 121700Z 1218/1303 18010KT 9999 SCT020 BKN040 PROB30 TEMPO 1218/1221 SHRA BKN025TCU

SR / SS: 06:32 / 15:31 UTC (EDVE 2019-11-12)
Willkommen im Verein Michael und viel Erfolg für deine Ausbildung! +++ Herzlich Willkommen bei der FFG Jens! +++ Uwe hat die PPL-Prüfung bestanden! Herzlichen Glückwunsch und Always Happy Landings!! +++ Hallo und herzlich Willkommen Lothar! Wir wünschen viel Spaß und Erfolg für die Ausbildung! +++ Und schon wieder hat sich ein Schüler freigeflogen, herzlichen Glückwunsch Sebastian zum ersten Solo! +++ Auch Mathias hat sein erstes Solo hinter sich gebracht. Herzlichen Glückwunsch und weiterhin Happy Landings! +++ Ilya hat seinen ersten Soloflug absolviert! Glückwunsch und weiter so! +++ Herzlich Willkommen bei der FFG, Carsten! +++ Hallo Peter, willkommen im Verein und viel Spaß bei der Ausbildung! +++ Falk hat sich freigeflogen! Gratulation und weiterhin Happy Landings!

Neues Bild in 60 Sekunden

Letztes NOTAM EDVE
von 23.12.2019 0001Z bis 30.12.2019 2359Z
AD HOURS OF OPS/SERVICE. DEC 23 AND DEC 27-30 AD OPEN DAILY 0800-1645, OTHER TIMES PPR.

Letztes NOTAM EDBC
von 05.11.2019 0839Z bis 03.02.2020 1605Z
DAILY SR-SS
DRONE 5NM RADIUS CENTERED ON PSN 515122N 0112505E AT MAGDEBURG/COCHSTEDT.
GND- 1000FT AGL

Letztes NOTAM EDVM
von 01.11.2019 0615Z bis 15.11.2019 1559Z
DAILY SR-SS PLUS30
DROPPING ZONE HILDESHEIM ADDITIONAL ACTIVE, 2NM RADIUS CENTERED ON PSN 521047N 0095644E
GND- FL100

Letztes NOTAM EDDV
von 13.11.2019 0900Z bis 15.11.2019 1100Z
OSNABRUECK DVOR OSN 114.3MHZ ON TEST, DO NOT USE, FALSE INDICATIONS POSS.

Letztes NOTAM EDVK
von 16.11.2019 0845Z bis 16.11.2019 1200Z
APRON GENERAL AVIATION PARTLY CLSD DUE TO EXER.

          aerodata150     Radio38